createdAt,value
2022-12-11T00:01:42.821Z,100448.75
2022-12-11T00:04:09.329Z,100455.50
2022-12-11T00:06:36.029Z,100447.78
2022-12-11T00:09:02.591Z,100455.50
2022-12-11T00:11:29.090Z,100454.59
2022-12-11T00:13:55.633Z,100460.53
2022-12-11T00:16:26.748Z,100458.84
2022-12-11T00:18:53.823Z,100453.75
2022-12-11T00:21:20.326Z,100456.31
2022-12-11T00:23:46.776Z,100462.31
2022-12-11T00:26:15.538Z,100456.25
2022-12-11T00:28:42.889Z,100456.25
2022-12-11T00:31:13.316Z,100453.75
2022-12-11T00:33:39.791Z,100461.50
2022-12-11T00:36:23.018Z,100456.41
2022-12-11T00:38:50.269Z,100463.22
2022-12-11T00:41:17.569Z,100460.72
2022-12-11T00:43:44.125Z,100459.91
2022-12-11T00:46:11.010Z,100462.44
2022-12-11T00:48:37.759Z,100455.63
2022-12-11T00:51:04.725Z,100457.34
2022-12-11T00:53:31.317Z,100449.59
2022-12-11T00:55:57.910Z,100454.72
2022-12-11T00:58:24.664Z,100449.59
2022-12-11T01:00:53.246Z,100453.03
2022-12-11T01:03:19.765Z,100447.91
2022-12-11T01:05:54.083Z,100449.69
2022-12-11T01:08:20.991Z,100446.28
2022-12-11T01:10:47.616Z,100447.09
2022-12-11T01:13:14.192Z,100448.75
2022-12-11T01:15:44.006Z,100450.59
2022-12-11T01:18:12.348Z,100452.38
2022-12-11T01:20:40.987Z,100448.97
2022-12-11T01:23:07.406Z,100454.94
2022-12-11T01:25:35.929Z,100455.66
2022-12-11T01:28:02.384Z,100453.03
2022-12-11T01:30:28.861Z,100456.53
2022-12-11T01:32:55.454Z,100452.25
2022-12-11T01:35:22.151Z,100461.66
2022-12-11T01:37:49.032Z,100456.63
2022-12-11T01:40:18.940Z,100455.78
2022-12-11T01:42:45.855Z,100454.94
2022-12-11T01:45:27.076Z,100450.59
2022-12-11T01:48:16.052Z,100443.63
2022-12-11T01:50:48.998Z,100454.75
2022-12-11T01:53:21.040Z,100451.31
2022-12-11T01:55:49.420Z,100446.16
2022-12-11T01:58:16.873Z,100442.72
2022-12-11T02:00:43.266Z,100440.19
2022-12-11T02:03:09.874Z,100441.03
2022-12-11T02:05:36.915Z,100441.75
2022-12-11T02:08:04.463Z,100437.41
2022-12-11T02:10:56.389Z,100436.63
2022-12-11T02:13:44.522Z,100437.47
2022-12-11T02:16:21.592Z,100441.84
2022-12-11T02:19:00.725Z,100435.81
2022-12-11T02:21:38.439Z,100434.91
2022-12-11T02:24:22.901Z,100437.59
2022-12-11T02:26:57.500Z,100435.91
2022-12-11T02:29:43.919Z,100429.75
2022-12-11T02:32:16.813Z,100428.97
2022-12-11T02:34:53.310Z,100426.44
2022-12-11T02:37:23.331Z,100431.50
2022-12-11T02:39:54.194Z,100431.44
2022-12-11T02:42:23.370Z,100432.34
2022-12-11T02:44:51.732Z,100423.72
2022-12-11T02:47:19.917Z,100427.13
2022-12-11T02:49:50.192Z,100419.31
2022-12-11T02:52:20.290Z,100422.03
2022-12-11T02:54:48.332Z,100413.53
2022-12-11T02:57:20.776Z,100418.63
2022-12-11T02:59:47.270Z,100410.13
2022-12-11T03:02:16.971Z,100412.84
2022-12-11T03:04:44.637Z,100418.03
2022-12-11T03:07:15.125Z,100418.03
2022-12-11T03:09:47.044Z,100414.44
2022-12-11T03:12:20.531Z,100407.69
2022-12-11T03:14:48.904Z,100409.47
2022-12-11T03:17:20.148Z,100405.22
2022-12-11T03:19:50.453Z,100402.75
2022-12-11T03:22:22.701Z,100402.72
2022-12-11T03:25:01.001Z,100411.22
2022-12-11T03:27:33.036Z,100403.44
2022-12-11T03:30:04.536Z,100409.47
2022-12-11T03:32:46.305Z,100419.78
2022-12-11T03:35:27.586Z,100413.69
2022-12-11T03:37:56.698Z,100427.44
2022-12-11T03:40:25.764Z,100426.59
2022-12-11T03:42:56.330Z,100421.47
2022-12-11T03:45:25.392Z,100423.13
2022-12-11T03:47:55.002Z,100420.63
2022-12-11T03:50:24.091Z,100416.34
2022-12-11T03:52:51.041Z,100412.03
2022-12-11T03:55:20.937Z,100409.50
2022-12-11T03:57:47.518Z,100407.69
2022-12-11T04:00:17.511Z,100407.78
2022-12-11T04:02:45.096Z,100408.59
2022-12-11T04:05:12.337Z,100400.84
2022-12-11T04:07:39.068Z,100402.59
2022-12-11T04:10:07.113Z,100399.19
2022-12-11T04:12:33.522Z,100395.69
2022-12-11T04:15:02.766Z,100393.16
2022-12-11T04:17:53.330Z,100401.00
2022-12-11T04:20:39.667Z,100395.91
2022-12-11T04:23:33.539Z,100389.78
2022-12-11T04:26:06.169Z,100397.56
2022-12-11T04:28:32.709Z,100391.56
2022-12-11T04:30:59.251Z,100392.41
2022-12-11T04:33:25.895Z,100389.00
2022-12-11T04:35:52.338Z,100394.19
2022-12-11T04:38:18.825Z,100386.50
2022-12-11T04:40:45.313Z,100382.97
2022-12-11T04:43:11.743Z,100373.59
2022-12-11T04:45:38.202Z,100377.91
2022-12-11T04:48:04.848Z,100383.13
2022-12-11T04:50:31.302Z,100380.50
2022-12-11T04:52:58.059Z,100380.47
2022-12-11T04:55:24.526Z,100380.53
2022-12-11T04:57:50.982Z,100371.97
2022-12-11T05:00:17.517Z,100379.75
2022-12-11T05:02:44.193Z,100374.72
2022-12-11T05:05:11.690Z,100377.31
2022-12-11T05:07:39.762Z,100370.47
2022-12-11T05:10:06.861Z,100380.75
2022-12-11T05:12:33.620Z,100378.13
2022-12-11T05:15:00.145Z,100387.56
2022-12-11T05:17:26.729Z,100383.28
2022-12-11T05:19:53.251Z,100391.88
2022-12-11T05:22:19.664Z,100386.63
2022-12-11T05:24:46.234Z,100378.88
2022-12-11T05:27:12.724Z,100380.59
2022-12-11T05:29:39.203Z,100383.94
2022-12-11T05:32:05.879Z,100383.03
2022-12-11T05:34:32.900Z,100381.34
2022-12-11T05:36:59.475Z,100373.47
2022-12-11T05:39:25.907Z,100378.69
2022-12-11T05:41:52.341Z,100365.81
2022-12-11T05:44:18.795Z,100364.09
2022-12-11T05:46:45.266Z,100376.13
2022-12-11T05:49:11.870Z,100364.94
2022-12-11T05:51:39.675Z,100368.38
2022-12-11T05:54:06.303Z,100358.91
2022-12-11T05:56:34.807Z,100362.38
2022-12-11T05:59:02.459Z,100364.16
2022-12-11T06:01:36.181Z,100367.50
2022-12-11T06:04:05.043Z,100367.47
2022-12-11T06:06:32.467Z,100372.59
2022-12-11T06:09:00.163Z,100369.16
2022-12-11T06:11:29.157Z,100361.41
2022-12-11T06:13:55.808Z,100357.94
2022-12-11T06:16:23.137Z,100362.28
2022-12-11T06:18:49.578Z,100358.84
2022-12-11T06:21:24.730Z,100369.16
2022-12-11T06:23:54.868Z,100357.09
2022-12-11T06:26:21.897Z,100361.28
2022-12-11T06:28:48.937Z,100355.25
2022-12-11T06:31:16.043Z,100368.16
2022-12-11T06:33:44.441Z,100358.72
2022-12-11T06:36:22.472Z,100360.50
2022-12-11T06:38:49.064Z,100364.81
2022-12-11T06:41:16.067Z,100362.13
2022-12-11T06:43:42.968Z,100358.69
2022-12-11T06:46:12.912Z,100360.50
2022-12-11T06:48:40.150Z,100362.25
2022-12-11T06:51:18.164Z,100356.28
2022-12-11T06:53:44.937Z,100362.22
2022-12-11T06:56:15.652Z,100362.97
2022-12-11T06:58:44.026Z,100366.34
2022-12-11T07:01:25.996Z,100359.41
2022-12-11T07:03:54.268Z,100368.13
2022-12-11T07:06:20.861Z,100370.75
2022-12-11T07:08:47.658Z,100360.53
2022-12-11T07:11:16.275Z,100371.75
2022-12-11T07:13:42.844Z,100367.53
2022-12-11T07:16:11.335Z,100374.47
2022-12-11T07:18:42.899Z,100371.91
2022-12-11T07:21:11.735Z,100369.31
2022-12-11T07:23:38.418Z,100374.41
2022-12-11T07:26:13.505Z,100377.81
2022-12-11T07:28:40.945Z,100373.56
2022-12-11T07:31:09.646Z,100371.84
2022-12-11T07:33:36.428Z,100367.63
2022-12-11T07:36:04.476Z,100376.16
2022-12-11T07:38:31.002Z,100374.44
2022-12-11T07:41:01.697Z,100378.75
2022-12-11T07:43:28.628Z,100381.34
2022-12-11T07:45:55.175Z,100382.28
2022-12-11T07:48:21.686Z,100383.13
2022-12-11T07:50:48.200Z,100385.72
2022-12-11T07:53:14.840Z,100380.53
2022-12-11T07:55:41.607Z,100385.69
2022-12-11T07:58:08.059Z,100382.88
2022-12-11T08:00:34.531Z,100385.53
2022-12-11T08:03:01.134Z,100383.06
2022-12-11T08:05:28.945Z,100382.34
2022-12-11T08:07:55.936Z,100387.56
2022-12-11T08:10:22.948Z,100385.00
2022-12-11T08:12:49.395Z,100381.59
2022-12-11T08:15:15.871Z,100380.78
2022-12-11T08:17:42.312Z,100383.31
2022-12-11T08:20:09.385Z,100371.31
2022-12-11T08:22:36.198Z,100371.34
2022-12-11T08:25:02.762Z,100371.28
2022-12-11T08:27:29.555Z,100378.16
2022-12-11T08:29:56.204Z,100376.41
2022-12-11T08:32:22.724Z,100377.19
2022-12-11T08:34:51.327Z,100373.69
2022-12-11T08:37:17.756Z,100377.97
2022-12-11T08:39:45.022Z,100384.75
2022-12-11T08:42:11.482Z,100380.41
2022-12-11T08:44:38.069Z,100382.19
2022-12-11T08:47:04.640Z,100374.44
2022-12-11T08:49:34.383Z,100378.88
2022-12-11T08:52:02.587Z,100377.28
2022-12-11T08:54:29.044Z,100373.00
2022-12-11T08:56:58.155Z,100372.19
2022-12-11T08:59:25.696Z,100371.38
2022-12-11T09:01:52.496Z,100363.69
2022-12-11T09:04:18.951Z,100364.53
2022-12-11T09:06:45.368Z,100367.16
2022-12-11T09:09:12.594Z,100362.94
2022-12-11T09:11:39.515Z,100372.38
2022-12-11T09:14:07.865Z,100372.38
2022-12-11T09:16:37.858Z,100367.00
2022-12-11T09:19:04.512Z,100373.84
2022-12-11T09:21:31.021Z,100372.88
2022-12-11T09:24:00.092Z,100369.44
2022-12-11T09:26:28.305Z,100376.19
2022-12-11T09:28:55.091Z,100376.28
2022-12-11T09:31:33.179Z,100384.03
2022-12-11T09:34:03.521Z,100386.72
2022-12-11T09:36:30.650Z,100380.72
2022-12-11T09:39:01.019Z,100383.44
2022-12-11T09:41:58.120Z,100377.53
2022-12-11T09:44:41.568Z,100376.56
2022-12-11T09:47:36.585Z,100367.06
2022-12-11T09:50:09.241Z,100378.13
2022-12-11T09:52:44.112Z,100372.91
2022-12-11T09:55:17.460Z,100368.69
2022-12-11T09:58:08.725Z,100372.16
2022-12-11T10:00:49.131Z,100370.47
2022-12-11T10:03:29.999Z,100370.31
2022-12-11T10:06:17.724Z,100375.53
2022-12-11T10:09:02.452Z,100373.84
2022-12-11T10:11:40.045Z,100367.91
2022-12-11T10:14:06.515Z,100366.94
2022-12-11T10:16:44.306Z,100369.56
2022-12-11T10:19:32.014Z,100366.16
2022-12-11T10:22:01.001Z,100361.88
2022-12-11T10:27:34.726Z,100361.81
2022-12-11T10:30:21.166Z,100360.13
2022-12-11T10:32:56.573Z,100360.94
2022-12-11T10:35:44.780Z,100354.00
2022-12-11T10:38:20.379Z,100349.81
2022-12-11T10:40:50.954Z,100338.78
2022-12-11T10:43:17.785Z,100331.94
2022-12-11T10:45:54.839Z,100335.41
2022-12-11T10:48:22.239Z,100327.66
2022-12-11T10:51:18.176Z,100325.19
2022-12-11T10:53:50.847Z,100327.69
2022-12-11T10:56:26.082Z,100324.22
2022-12-11T10:58:52.718Z,100326.81
2022-12-11T11:01:23.065Z,100320.88
2022-12-11T11:04:06.586Z,100318.38
2022-12-11T11:06:33.834Z,100315.78
2022-12-11T11:09:01.721Z,100321.88
2022-12-11T11:11:39.402Z,100315.81
2022-12-11T11:14:12.229Z,100315.84
2022-12-11T11:16:40.441Z,100314.25
2022-12-11T11:19:07.392Z,100310.63
2022-12-11T11:21:35.851Z,100311.50
2022-12-11T11:24:03.609Z,100305.56
2022-12-11T11:26:56.579Z,100308.16
2022-12-11T11:29:31.941Z,100307.31
2022-12-11T11:32:20.629Z,100313.31
2022-12-11T11:34:47.064Z,100309.75
2022-12-11T11:37:28.674Z,100298.63
2022-12-11T11:40:01.370Z,100293.59
2022-12-11T11:42:44.803Z,100293.59
2022-12-11T11:45:38.589Z,100295.38
2022-12-11T11:48:17.281Z,100286.78
2022-12-11T11:50:46.338Z,100285.91
2022-12-11T11:53:20.818Z,100284.28
2022-12-11T11:56:02.996Z,100286.06
2022-12-11T11:58:47.641Z,100273.22
2022-12-11T12:01:17.603Z,100286.09
2022-12-11T12:03:45.532Z,100285.19
2022-12-11T12:06:50.533Z,100281.69
2022-12-11T12:09:23.553Z,100277.38
2022-12-11T12:12:10.940Z,100278.22
2022-12-11T12:14:52.958Z,100279.09
2022-12-11T12:17:27.605Z,100283.34
2022-12-11T12:20:03.099Z,100284.09
2022-12-11T12:22:46.395Z,100277.25
2022-12-11T12:25:28.978Z,100276.53
2022-12-11T12:28:03.350Z,100278.34
2022-12-11T12:30:45.345Z,100273.22
2022-12-11T12:33:30.138Z,100270.72
2022-12-11T12:36:07.231Z,100273.22
2022-12-11T12:38:46.464Z,100260.34
2022-12-11T12:41:22.498Z,100262.94
2022-12-11T12:44:08.313Z,100252.66
2022-12-11T12:47:02.440Z,100251.00
2022-12-11T12:49:49.005Z,100251.88
2022-12-11T12:52:36.746Z,100258.78
2022-12-11T12:55:14.293Z,100250.22
2022-12-11T12:57:50.793Z,100258.84
2022-12-11T13:00:38.778Z,100262.31
2022-12-11T13:03:29.351Z,100262.28
2022-12-11T13:05:58.903Z,100256.31
2022-12-11T13:08:28.903Z,100262.31
2022-12-11T13:11:03.445Z,100257.16
2022-12-11T13:13:39.614Z,100258.03
2022-12-11T13:16:27.231Z,100249.44
2022-12-11T13:18:54.520Z,100250.25
2022-12-11T13:21:29.434Z,100245.09
2022-12-11T13:24:27.305Z,100246.81
2022-12-11T13:26:54.122Z,100249.38
2022-12-11T13:29:38.569Z,100247.66
2022-12-11T13:32:08.062Z,100251.09
2022-12-11T13:34:37.604Z,100251.06
2022-12-11T13:37:05.639Z,100256.13
2022-12-11T13:39:37.486Z,100258.72
2022-12-11T13:42:20.654Z,100255.34
2022-12-11T13:44:48.909Z,100246.78
2022-12-11T13:47:18.559Z,100241.72
2022-12-11T13:49:58.465Z,100250.34
2022-12-11T13:52:27.632Z,100254.63
2022-12-11T13:54:56.029Z,100253.78
2022-12-11T13:57:30.977Z,100251.19
2022-12-11T13:59:59.371Z,100257.28
2022-12-11T14:02:42.434Z,100263.28
2022-12-11T14:05:12.618Z,100257.28
2022-12-11T14:07:53.462Z,100267.53
2022-12-11T14:10:23.611Z,100269.22
2022-12-11T14:12:59.224Z,100266.56
2022-12-11T14:15:28.097Z,100261.38
2022-12-11T14:17:55.717Z,100263.97
2022-12-11T14:20:28.804Z,100276.84
2022-12-11T14:23:13.725Z,100272.56
2022-12-11T14:25:40.243Z,100268.25
2022-12-11T14:28:16.857Z,100274.28
2022-12-11T14:30:49.499Z,100269.13
2022-12-11T14:33:17.765Z,100270.81
2022-12-11T14:35:45.189Z,100275.03
2022-12-11T14:38:18.752Z,100276.75
2022-12-11T14:40:48.801Z,100278.47
2022-12-11T14:43:23.514Z,100279.31
2022-12-11T14:45:57.796Z,100281.91
2022-12-11T14:48:30.566Z,100283.63
2022-12-11T14:51:01.627Z,100290.53
2022-12-11T14:53:42.342Z,100288.00
2022-12-11T14:56:18.699Z,100288.78
2022-12-11T14:58:55.174Z,100278.47
2022-12-11T15:01:28.169Z,100288.75
2022-12-11T15:04:26.742Z,100285.31
2022-12-11T15:06:53.283Z,100292.22
2022-12-11T15:09:38.289Z,100292.19
2022-12-11T15:12:13.648Z,100290.50
2022-12-11T15:14:47.199Z,100295.63
2022-12-11T15:17:15.071Z,100295.66
2022-12-11T15:19:47.231Z,100295.66
2022-12-11T15:22:16.451Z,100293.94
2022-12-11T15:24:46.385Z,100297.44
2022-12-11T15:27:24.902Z,100299.97
2022-12-11T15:29:51.619Z,100284.47
2022-12-11T15:32:19.420Z,100292.22
2022-12-11T15:35:22.717Z,100298.22
2022-12-11T15:37:54.421Z,100288.75
2022-12-11T15:40:21.208Z,100292.19
2022-12-11T15:42:48.529Z,100296.47
2022-12-11T15:45:20.465Z,100293.91
2022-12-11T15:47:48.248Z,100295.66
2022-12-11T15:50:23.711Z,100294.81
2022-12-11T15:52:51.840Z,100296.50
2022-12-11T15:55:19.531Z,100295.69
2022-12-11T15:58:01.909Z,100292.28
2022-12-11T16:00:28.529Z,100294.00
2022-12-11T16:02:57.029Z,100288.84
2022-12-11T16:05:23.697Z,100298.28
2022-12-11T16:07:54.807Z,100297.47
2022-12-11T16:10:22.084Z,100311.22
2022-12-11T16:12:48.705Z,100304.38
2022-12-11T16:15:21.423Z,100302.66
2022-12-11T16:17:49.771Z,100299.19
2022-12-11T16:20:16.285Z,100304.34
2022-12-11T16:22:42.765Z,100301.78
2022-12-11T16:25:09.481Z,100302.66
2022-12-11T16:27:36.264Z,100302.66
2022-12-11T16:30:03.620Z,100296.63
2022-12-11T16:32:30.062Z,100294.00
2022-12-11T16:35:00.702Z,100289.72
2022-12-11T16:37:27.342Z,100297.47
2022-12-11T16:39:53.808Z,100291.41
2022-12-11T16:42:20.273Z,100288.88
2022-12-11T16:44:46.919Z,100291.47
2022-12-11T16:47:13.300Z,100289.75
2022-12-11T16:49:39.813Z,100291.44
2022-12-11T16:52:06.256Z,100294.03
2022-12-11T16:54:32.682Z,100287.16
2022-12-11T16:56:59.223Z,100291.44
2022-12-11T16:59:25.686Z,100294.03
2022-12-11T17:01:52.334Z,100292.28
2022-12-11T17:04:18.951Z,100291.38
2022-12-11T17:06:46.293Z,100290.53
2022-12-11T17:09:12.788Z,100291.44
2022-12-11T17:11:39.203Z,100290.59
2022-12-11T17:14:05.816Z,100284.56
2022-12-11T17:16:33.913Z,100283.69
2022-12-11T17:19:00.788Z,100285.44
2022-12-11T17:21:27.326Z,100293.09
2022-12-11T17:23:53.842Z,100293.09
2022-12-11T17:26:20.403Z,100293.06
2022-12-11T17:28:46.978Z,100291.34
2022-12-11T17:31:16.495Z,100283.59
2022-12-11T17:33:44.225Z,100289.59
2022-12-11T17:36:13.552Z,100280.16
2022-12-11T17:38:40.233Z,100282.66
2022-12-11T17:41:07.981Z,100286.09
2022-12-11T17:43:34.550Z,100284.44
2022-12-11T17:46:01.039Z,100286.16
2022-12-11T17:48:27.985Z,100280.97
2022-12-11T17:50:54.595Z,100288.75
2022-12-11T17:53:22.060Z,100285.31
2022-12-11T17:55:49.738Z,100281.84
2022-12-11T17:58:18.897Z,100283.53
2022-12-11T18:00:47.154Z,100283.53
2022-12-11T18:03:14.174Z,100280.16
2022-12-11T18:05:42.735Z,100287.91
2022-12-11T18:08:13.080Z,100288.75
2022-12-11T18:10:39.884Z,100283.59
2022-12-11T18:13:06.394Z,100279.28
2022-12-11T18:15:33.225Z,100285.31
2022-12-11T18:17:59.765Z,100293.84
2022-12-11T18:20:27.362Z,100293.88
2022-12-11T18:22:55.353Z,100288.69
2022-12-11T18:25:21.894Z,100292.09
2022-12-11T18:27:48.566Z,100292.94
2022-12-11T18:30:15.235Z,100289.44
2022-12-11T18:32:42.936Z,100293.78
2022-12-11T18:35:11.037Z,100292.91
2022-12-11T18:37:38.365Z,100301.44
2022-12-11T18:40:06.018Z,100296.31
2022-12-11T18:42:33.711Z,100298.00
2022-12-11T18:45:00.937Z,100300.47
2022-12-11T18:47:27.748Z,100291.03
2022-12-11T18:49:54.343Z,100294.53
2022-12-11T18:52:20.851Z,100291.97
2022-12-11T18:54:47.511Z,100292.84
2022-12-11T18:57:13.941Z,100296.31
2022-12-11T18:59:40.408Z,100297.09
2022-12-11T19:02:07.356Z,100289.31
2022-12-11T19:04:35.906Z,100297.09
2022-12-11T19:07:02.421Z,100289.41
2022-12-11T19:09:31.614Z,100290.28
2022-12-11T19:12:00.401Z,100287.72
2022-12-11T19:14:26.937Z,100297.16
2022-12-11T19:16:53.415Z,100290.34
2022-12-11T19:19:21.437Z,100295.47
2022-12-11T19:21:49.260Z,100298.06
2022-12-11T19:24:21.054Z,100296.28
2022-12-11T19:26:47.917Z,100304.00
2022-12-11T19:29:34.651Z,100295.38
2022-12-11T19:32:04.759Z,100296.19
2022-12-11T19:34:31.309Z,100297.09
2022-12-11T19:36:58.010Z,100295.41
2022-12-11T19:39:25.067Z,100297.16
2022-12-11T19:41:51.475Z,100301.50
2022-12-11T19:44:18.121Z,100299.72
2022-12-11T19:46:44.723Z,100300.59
2022-12-11T19:49:12.140Z,100304.03
2022-12-11T19:51:40.705Z,100303.16
2022-12-11T19:54:09.482Z,100297.16
2022-12-11T19:56:36.127Z,100297.16
2022-12-11T19:59:08.552Z,100296.34
2022-12-11T20:01:37.509Z,100294.63
2022-12-11T20:04:07.724Z,100296.38
2022-12-11T20:06:36.918Z,100286.06
2022-12-11T20:09:05.350Z,100292.94
2022-12-11T20:11:33.069Z,100286.06
2022-12-11T20:14:00.339Z,100286.84
2022-12-11T20:16:46.372Z,100283.41
2022-12-11T20:19:13.784Z,100280.84
2022-12-11T20:21:40.582Z,100289.44
2022-12-11T20:24:07.579Z,100279.19
2022-12-11T20:26:36.473Z,100294.66
2022-12-11T20:29:07.272Z,100291.22
2022-12-11T20:31:35.258Z,100286.09
2022-12-11T20:34:01.798Z,100287.81
2022-12-11T20:36:28.337Z,100285.22
2022-12-11T20:38:54.850Z,100288.66
2022-12-11T20:41:23.711Z,100286.94
2022-12-11T20:43:53.031Z,100283.53
2022-12-11T20:46:20.968Z,100281.84
2022-12-11T20:48:48.380Z,100280.09
2022-12-11T20:51:22.434Z,100271.50
2022-12-11T20:53:57.502Z,100276.66
2022-12-11T20:56:25.919Z,100278.38
2022-12-11T20:58:52.473Z,100282.66
2022-12-11T21:01:22.622Z,100282.66
2022-12-11T21:03:49.907Z,100268.94
2022-12-11T21:06:31.155Z,100269.75
2022-12-11T21:09:00.384Z,100269.72
2022-12-11T21:11:27.686Z,100269.75
2022-12-11T21:13:54.502Z,100269.75
2022-12-11T21:16:22.160Z,100274.91
2022-12-11T21:18:48.987Z,100286.13
2022-12-11T21:21:16.426Z,100290.47
2022-12-11T21:23:42.997Z,100288.75
2022-12-11T21:26:09.597Z,100289.63
2022-12-11T21:28:36.171Z,100280.16
2022-12-11T21:31:06.978Z,100278.44
2022-12-11T21:33:33.995Z,100275.81
2022-12-11T21:36:00.633Z,100284.34
2022-12-11T21:38:28.177Z,100280.94
2022-12-11T21:40:55.817Z,100280.97
2022-12-11T21:43:23.393Z,100286.13
2022-12-11T21:46:06.488Z,100281.00
2022-12-11T21:48:33.382Z,100284.47
2022-12-11T21:51:12.474Z,100283.59
2022-12-11T21:53:39.040Z,100283.53
2022-12-11T21:56:13.695Z,100283.53
2022-12-11T21:58:42.127Z,100287.00
2022-12-11T22:01:22.318Z,100289.53
2022-12-11T22:03:49.928Z,100286.09
2022-12-11T22:06:16.748Z,100292.16
2022-12-11T22:08:43.320Z,100305.88
2022-12-11T22:11:17.952Z,100303.34
2022-12-11T22:13:44.435Z,100300.78
2022-12-11T22:16:11.359Z,100302.50
2022-12-11T22:18:37.975Z,100305.06
2022-12-11T22:21:05.241Z,100307.63
2022-12-11T22:23:31.764Z,100307.63
2022-12-11T22:25:58.259Z,100311.94
2022-12-11T22:28:24.663Z,100310.22
2022-12-11T22:30:51.265Z,100317.97
2022-12-11T22:33:17.726Z,100316.22
2022-12-11T22:35:44.216Z,100318.78
2022-12-11T22:38:10.621Z,100320.53
2022-12-11T22:40:41.135Z,100321.38
2022-12-11T22:43:07.736Z,100313.56
2022-12-11T22:45:39.023Z,100312.66
2022-12-11T22:48:06.615Z,100323.03
2022-12-11T22:50:33.719Z,100322.25
2022-12-11T22:53:00.273Z,100317.97
2022-12-11T22:55:26.745Z,100318.81
2022-12-11T22:57:53.433Z,100319.66
2022-12-11T23:00:20.013Z,100317.84
2022-12-11T23:02:46.643Z,100323.03
2022-12-11T23:05:13.857Z,100314.44
2022-12-11T23:07:40.867Z,100316.22
2022-12-11T23:10:08.844Z,100321.41
2022-12-11T23:12:36.268Z,100325.72
2022-12-11T23:15:02.794Z,100328.28
2022-12-11T23:17:29.293Z,100326.53
2022-12-11T23:19:55.794Z,100328.19
2022-12-11T23:22:22.215Z,100334.25
2022-12-11T23:24:48.641Z,100327.38
2022-12-11T23:27:15.327Z,100325.69
2022-12-11T23:29:41.974Z,100325.69
2022-12-11T23:32:08.381Z,100319.66
2022-12-11T23:34:34.774Z,100325.66
2022-12-11T23:37:01.236Z,100322.16
2022-12-11T23:39:27.711Z,100330.75
2022-12-11T23:41:54.186Z,100319.59
2022-12-11T23:44:20.664Z,100328.25
2022-12-11T23:46:47.109Z,100324.81
2022-12-11T23:49:13.547Z,100328.25
2022-12-11T23:51:40.222Z,100329.97
2022-12-11T23:54:06.692Z,100327.34
2022-12-11T23:56:33.300Z,100337.66
2022-12-11T23:58:59.747Z,100329.13
